sensor_id;sensor_type;location;lat;lon;timestamp;P1;durP1;ratioP1;P2;durP2;ratioP2
5929;SDS011;2990;48.746;9.236;2023-07-31T00:02:04;145.52;;;138.90;;
5929;SDS011;2990;48.746;9.236;2023-07-31T00:04:30;153.65;;;146.93;;
5929;SDS011;2990;48.746;9.236;2023-07-31T00:06:55;148.82;;;142.35;;
5929;SDS011;2990;48.746;9.236;2023-07-31T00:09:21;140.32;;;134.27;;
5929;SDS011;2990;48.746;9.236;2023-07-31T00:11:46;159.30;;;152.27;;
5929;SDS011;2990;48.746;9.236;2023-07-31T00:14:12;153.13;;;146.48;;
5929;SDS011;2990;48.746;9.236;2023-07-31T00:16:37;148.13;;;141.73;;
5929;SDS011;2990;48.746;9.236;2023-07-31T00:19:03;158.90;;;151.93;;
5929;SDS011;2990;48.746;9.236;2023-07-31T00:21:28;137.02;;;131.13;;
5929;SDS011;2990;48.746;9.236;2023-07-31T00:23:54;163.75;;;156.48;;
5929;SDS011;2990;48.746;9.236;2023-07-31T00:26:19;156.93;;;150.10;;
5929;SDS011;2990;48.746;9.236;2023-07-31T00:28:45;151.75;;;145.10;;
5929;SDS011;2990;48.746;9.236;2023-07-31T00:31:11;151.85;;;145.15;;
5929;SDS011;2990;48.746;9.236;2023-07-31T00:33:37;147.93;;;141.43;;
5929;SDS011;2990;48.746;9.236;2023-07-31T00:36:03;150.48;;;143.95;;
5929;SDS011;2990;48.746;9.236;2023-07-31T00:38:28;140.52;;;134.45;;
5929;SDS011;2990;48.746;9.236;2023-07-31T00:40:54;161.48;;;154.38;;
5929;SDS011;2990;48.746;9.236;2023-07-31T00:43:20;153.98;;;147.20;;
5929;SDS011;2990;48.746;9.236;2023-07-31T00:45:45;147.75;;;141.32;;
5929;SDS011;2990;48.746;9.236;2023-07-31T00:48:11;131.30;;;125.53;;
5929;SDS011;2990;48.746;9.236;2023-07-31T00:50:36;136.05;;;130.13;;
5929;SDS011;2990;48.746;9.236;2023-07-31T00:53:03;118.78;;;113.60;;
5929;SDS011;2990;48.746;9.236;2023-07-31T00:55:29;129.38;;;123.85;;
5929;SDS011;2990;48.746;9.236;2023-07-31T00:57:55;141.00;;;134.98;;
5929;SDS011;2990;48.746;9.236;2023-07-31T01:00:21;140.88;;;134.70;;
5929;SDS011;2990;48.746;9.236;2023-07-31T01:02:47;145.70;;;139.38;;
5929;SDS011;2990;48.746;9.236;2023-07-31T01:05:15;139.27;;;133.13;;
5929;SDS011;2990;48.746;9.236;2023-07-31T01:07:46;149.02;;;142.48;;
5929;SDS011;2990;48.746;9.236;2023-07-31T01:10:23;129.95;;;124.32;;
5929;SDS011;2990;48.746;9.236;2023-07-31T01:12:55;140.32;;;134.20;;
5929;SDS011;2990;48.746;9.236;2023-07-31T01:15:22;141.25;;;135.00;;
5929;SDS011;2990;48.746;9.236;2023-07-31T01:17:48;152.18;;;145.48;;
5929;SDS011;2990;48.746;9.236;2023-07-31T01:20:16;160.18;;;152.98;;
5929;SDS011;2990;48.746;9.236;2023-07-31T01:22:54;158.98;;;151.93;;
5929;SDS011;2990;48.746;9.236;2023-07-31T01:29:07;139.15;;;132.98;;
5929;SDS011;2990;48.746;9.236;2023-07-31T01:31:23;152.80;;;146.10;;
5929;SDS011;2990;48.746;9.236;2023-07-31T01:33:50;126.40;;;120.93;;
5929;SDS011;2990;48.746;9.236;2023-07-31T01:36:18;145.50;;;139.18;;
5929;SDS011;2990;48.746;9.236;2023-07-31T01:38:44;162.50;;;155.23;;
5929;SDS011;2990;48.746;9.236;2023-07-31T01:41:10;163.95;;;156.52;;
5929;SDS011;2990;48.746;9.236;2023-07-31T01:43:35;145.90;;;139.45;;
5929;SDS011;2990;48.746;9.236;2023-07-31T01:46:01;154.43;;;147.55;;
5929;SDS011;2990;48.746;9.236;2023-07-31T01:48:26;135.88;;;129.95;;
5929;SDS011;2990;48.746;9.236;2023-07-31T01:50:52;137.85;;;131.90;;
5929;SDS011;2990;48.746;9.236;2023-07-31T01:53:17;147.98;;;141.45;;
5929;SDS011;2990;48.746;9.236;2023-07-31T01:55:43;134.68;;;128.80;;
5929;SDS011;2990;48.746;9.236;2023-07-31T01:58:09;137.65;;;131.63;;
5929;SDS011;2990;48.746;9.236;2023-07-31T02:00:34;144.32;;;137.95;;
5929;SDS011;2990;48.746;9.236;2023-07-31T02:03:00;149.10;;;142.63;;
5929;SDS011;2990;48.746;9.236;2023-07-31T02:05:28;120.82;;;115.57;;
5929;SDS011;2990;48.746;9.236;2023-07-31T02:07:53;128.05;;;122.55;;
5929;SDS011;2990;48.746;9.236;2023-07-31T02:10:19;108.53;;;103.93;;
5929;SDS011;2990;48.746;9.236;2023-07-31T02:12:44;119.28;;;114.20;;
5929;SDS011;2990;48.746;9.236;2023-07-31T02:15:10;110.30;;;105.57;;
5929;SDS011;2990;48.746;9.236;2023-07-31T02:17:35;104.10;;;99.63;;
5929;SDS011;2990;48.746;9.236;2023-07-31T02:20:01;99.32;;;95.15;;
5929;SDS011;2990;48.746;9.236;2023-07-31T02:22:26;106.03;;;101.50;;
5929;SDS011;2990;48.746;9.236;2023-07-31T02:24:52;102.63;;;98.25;;
5929;SDS011;2990;48.746;9.236;2023-07-31T02:27:17;99.63;;;95.35;;
5929;SDS011;2990;48.746;9.236;2023-07-31T02:29:43;90.68;;;86.85;;
5929;SDS011;2990;48.746;9.236;2023-07-31T02:32:08;95.43;;;91.38;;
5929;SDS011;2990;48.746;9.236;2023-07-31T02:34:34;102.82;;;98.45;;
5929;SDS011;2990;48.746;9.236;2023-07-31T02:37:00;82.85;;;79.38;;
5929;SDS011;2990;48.746;9.236;2023-07-31T02:39:25;69.72;;;66.88;;
5929;SDS011;2990;48.746;9.236;2023-07-31T02:41:51;75.90;;;72.70;;
5929;SDS011;2990;48.746;9.236;2023-07-31T02:44:16;71.07;;;68.10;;
5929;SDS011;2990;48.746;9.236;2023-07-31T02:46:42;69.05;;;66.20;;
5929;SDS011;2990;48.746;9.236;2023-07-31T02:49:07;70.75;;;67.78;;
5929;SDS011;2990;48.746;9.236;2023-07-31T02:51:33;61.85;;;59.28;;
5929;SDS011;2990;48.746;9.236;2023-07-31T02:53:58;58.08;;;55.70;;
5929;SDS011;2990;48.746;9.236;2023-07-31T02:56:24;58.00;;;55.65;;
5929;SDS011;2990;48.746;9.236;2023-07-31T02:58:49;58.30;;;55.95;;
5929;SDS011;2990;48.746;9.236;2023-07-31T03:01:15;58.17;;;55.83;;
5929;SDS011;2990;48.746;9.236;2023-07-31T03:03:41;57.85;;;55.47;;
5929;SDS011;2990;48.746;9.236;2023-07-31T03:06:07;61.15;;;58.65;;
5929;SDS011;2990;48.746;9.236;2023-07-31T03:08:32;57.95;;;55.47;;
5929;SDS011;2990;48.746;9.236;2023-07-31T03:10:58;60.90;;;58.38;;
5929;SDS011;2990;48.746;9.236;2023-07-31T03:13:23;53.28;;;51.13;;
5929;SDS011;2990;48.746;9.236;2023-07-31T03:15:49;56.17;;;53.90;;
5929;SDS011;2990;48.746;9.236;2023-07-31T03:18:15;45.28;;;43.50;;
5929;SDS011;2990;48.746;9.236;2023-07-31T03:20:43;45.70;;;43.92;;
5929;SDS011;2990;48.746;9.236;2023-07-31T03:23:09;44.55;;;42.83;;
5929;SDS011;2990;48.746;9.236;2023-07-31T03:25:35;44.58;;;42.85;;
5929;SDS011;2990;48.746;9.236;2023-07-31T03:28:00;43.40;;;41.78;;
5929;SDS011;2990;48.746;9.236;2023-07-31T03:30:26;43.25;;;41.63;;
5929;SDS011;2990;48.746;9.236;2023-07-31T03:32:52;40.45;;;38.95;;
5929;SDS011;2990;48.746;9.236;2023-07-31T03:35:17;45.45;;;43.72;;
5929;SDS011;2990;48.746;9.236;2023-07-31T03:37:43;44.05;;;42.30;;
5929;SDS011;2990;48.746;9.236;2023-07-31T03:40:08;42.13;;;40.50;;
5929;SDS011;2990;48.746;9.236;2023-07-31T03:42:34;43.47;;;41.85;;
5929;SDS011;2990;48.746;9.236;2023-07-31T03:45:00;47.17;;;45.30;;
5929;SDS011;2990;48.746;9.236;2023-07-31T03:47:26;46.95;;;45.15;;
5929;SDS011;2990;48.746;9.236;2023-07-31T03:49:51;41.72;;;40.15;;
5929;SDS011;2990;48.746;9.236;2023-07-31T03:52:17;47.17;;;45.30;;
5929;SDS011;2990;48.746;9.236;2023-07-31T03:54:42;45.15;;;43.40;;
5929;SDS011;2990;48.746;9.236;2023-07-31T03:57:09;49.90;;;47.92;;
5929;SDS011;2990;48.746;9.236;2023-07-31T03:59:35;50.83;;;48.78;;
5929;SDS011;2990;48.746;9.236;2023-07-31T04:02:01;45.50;;;43.63;;
5929;SDS011;2990;48.746;9.236;2023-07-31T04:04:26;51.95;;;49.88;;
5929;SDS011;2990;48.746;9.236;2023-07-31T04:06:52;48.97;;;47.03;;
5929;SDS011;2990;48.746;9.236;2023-07-31T04:09:17;54.58;;;52.38;;
5929;SDS011;2990;48.746;9.236;2023-07-31T04:11:43;61.65;;;59.10;;
5929;SDS011;2990;48.746;9.236;2023-07-31T04:14:08;67.28;;;64.45;;
5929;SDS011;2990;48.746;9.236;2023-07-31T04:16:34;59.00;;;56.55;;
5929;SDS011;2990;48.746;9.236;2023-07-31T04:18:59;71.43;;;68.43;;
5929;SDS011;2990;48.746;9.236;2023-07-31T04:21:25;71.38;;;68.38;;
5929;SDS011;2990;48.746;9.236;2023-07-31T04:23:51;82.97;;;79.43;;
5929;SDS011;2990;48.746;9.236;2023-07-31T04:26:16;94.35;;;90.32;;
5929;SDS011;2990;48.746;9.236;2023-07-31T04:28:42;84.78;;;81.07;;
5929;SDS011;2990;48.746;9.236;2023-07-31T04:31:08;87.35;;;83.57;;
5929;SDS011;2990;48.746;9.236;2023-07-31T04:33:33;93.10;;;89.15;;
5929;SDS011;2990;48.746;9.236;2023-07-31T04:35:59;92.82;;;88.82;;
5929;SDS011;2990;48.746;9.236;2023-07-31T04:38:25;101.82;;;97.50;;
5929;SDS011;2990;48.746;9.236;2023-07-31T04:40:50;115.45;;;110.47;;
5929;SDS011;2990;48.746;9.236;2023-07-31T04:43:16;112.80;;;107.93;;
5929;SDS011;2990;48.746;9.236;2023-07-31T04:45:47;125.40;;;119.75;;
5929;SDS011;2990;48.746;9.236;2023-07-31T04:48:13;124.32;;;118.90;;
5929;SDS011;2990;48.746;9.236;2023-07-31T04:50:39;133.65;;;127.72;;
5929;SDS011;2990;48.746;9.236;2023-07-31T04:53:05;130.63;;;124.82;;
5929;SDS011;2990;48.746;9.236;2023-07-31T04:55:30;157.75;;;150.60;;
5929;SDS011;2990;48.746;9.236;2023-07-31T04:57:57;166.13;;;158.68;;
5929;SDS011;2990;48.746;9.236;2023-07-31T05:00:24;171.48;;;163.65;;
5929;SDS011;2990;48.746;9.236;2023-07-31T05:02:49;165.68;;;158.18;;
5929;SDS011;2990;48.746;9.236;2023-07-31T05:05:15;171.48;;;163.55;;
5929;SDS011;2990;48.746;9.236;2023-07-31T05:07:40;181.73;;;173.35;;
5929;SDS011;2990;48.746;9.236;2023-07-31T05:10:06;181.88;;;173.43;;
5929;SDS011;2990;48.746;9.236;2023-07-31T05:12:32;178.13;;;170.00;;
5929;SDS011;2990;48.746;9.236;2023-07-31T05:14:57;170.93;;;163.27;;
5929;SDS011;2990;48.746;9.236;2023-07-31T05:17:23;171.30;;;163.45;;
5929;SDS011;2990;48.746;9.236;2023-07-31T05:19:48;165.50;;;158.02;;
5929;SDS011;2990;48.746;9.236;2023-07-31T05:22:14;160.93;;;153.73;;
5929;SDS011;2990;48.746;9.236;2023-07-31T05:24:39;145.30;;;138.70;;
5929;SDS011;2990;48.746;9.236;2023-07-31T05:27:05;160.30;;;153.02;;
5929;SDS011;2990;48.746;9.236;2023-07-31T05:29:31;152.18;;;145.30;;
5929;SDS011;2990;48.746;9.236;2023-07-31T05:31:57;148.77;;;142.07;;
5929;SDS011;2990;48.746;9.236;2023-07-31T05:34:22;148.63;;;141.82;;
5929;SDS011;2990;48.746;9.236;2023-07-31T05:36:48;172.10;;;164.23;;
5929;SDS011;2990;48.746;9.236;2023-07-31T05:39:13;159.10;;;151.95;;
5929;SDS011;2990;48.746;9.236;2023-07-31T05:41:39;181.38;;;173.02;;
5929;SDS011;2990;48.746;9.236;2023-07-31T05:44:04;190.85;;;181.70;;
5929;SDS011;2990;48.746;9.236;2023-07-31T05:46:30;209.43;;;199.57;;
5929;SDS011;2990;48.746;9.236;2023-07-31T05:48:56;197.13;;;187.88;;
5929;SDS011;2990;48.746;9.236;2023-07-31T05:51:21;217.27;;;206.88;;
5929;SDS011;2990;48.746;9.236;2023-07-31T05:53:47;236.73;;;225.32;;
5929;SDS011;2990;48.746;9.236;2023-07-31T05:56:13;302.27;;;287.13;;
5929;SDS011;2990;48.746;9.236;2023-07-31T05:58:38;300.83;;;285.83;;
5929;SDS011;2990;48.746;9.236;2023-07-31T06:01:04;315.42;;;299.48;;
5929;SDS011;2990;48.746;9.236;2023-07-31T06:03:29;314.70;;;298.42;;
5929;SDS011;2990;48.746;9.236;2023-07-31T06:05:55;340.05;;;321.98;;
5929;SDS011;2990;48.746;9.236;2023-07-31T06:08:21;355.02;;;336.27;;
5929;SDS011;2990;48.746;9.236;2023-07-31T06:10:46;363.20;;;343.73;;
5929;SDS011;2990;48.746;9.236;2023-07-31T06:13:12;356.45;;;337.35;;
5929;SDS011;2990;48.746;9.236;2023-07-31T06:15:37;395.73;;;374.38;;
5929;SDS011;2990;48.746;9.236;2023-07-31T06:18:03;437.65;;;413.30;;
5929;SDS011;2990;48.746;9.236;2023-07-31T06:20:31;413.70;;;390.60;;
5929;SDS011;2990;48.746;9.236;2023-07-31T06:22:56;464.20;;;437.90;;
5929;SDS011;2990;48.746;9.236;2023-07-31T06:25:22;465.27;;;438.75;;
5929;SDS011;2990;48.746;9.236;2023-07-31T06:27:47;451.40;;;425.83;;
5929;SDS011;2990;48.746;9.236;2023-07-31T06:30:13;455.83;;;429.63;;
5929;SDS011;2990;48.746;9.236;2023-07-31T06:32:38;460.67;;;434.60;;
5929;SDS011;2990;48.746;9.236;2023-07-31T06:35:05;462.23;;;435.55;;
5929;SDS011;2990;48.746;9.236;2023-07-31T06:37:31;453.17;;;427.08;;
5929;SDS011;2990;48.746;9.236;2023-07-31T06:39:57;497.55;;;468.75;;
5929;SDS011;2990;48.746;9.236;2023-07-31T06:42:22;504.48;;;475.27;;
5929;SDS011;2990;48.746;9.236;2023-07-31T06:44:48;505.60;;;475.80;;
5929;SDS011;2990;48.746;9.236;2023-07-31T06:47:14;515.65;;;484.45;;
5929;SDS011;2990;48.746;9.236;2023-07-31T06:49:40;559.72;;;525.53;;
5929;SDS011;2990;48.746;9.236;2023-07-31T06:52:05;531.50;;;498.88;;
5929;SDS011;2990;48.746;9.236;2023-07-31T06:54:31;530.72;;;498.70;;
5929;SDS011;2990;48.746;9.236;2023-07-31T06:56:57;511.58;;;481.23;;
5929;SDS011;2990;48.746;9.236;2023-07-31T06:59:22;553.95;;;519.95;;
5929;SDS011;2990;48.746;9.236;2023-07-31T07:01:48;494.95;;;466.30;;
5929;SDS011;2990;48.746;9.236;2023-07-31T07:04:14;516.78;;;485.83;;
5929;SDS011;2990;48.746;9.236;2023-07-31T07:06:39;516.55;;;486.10;;
5929;SDS011;2990;48.746;9.236;2023-07-31T07:09:05;512.00;;;481.65;;
5929;SDS011;2990;48.746;9.236;2023-07-31T07:11:31;525.30;;;493.63;;
5929;SDS011;2990;48.746;9.236;2023-07-31T07:13:56;505.05;;;475.02;;
5929;SDS011;2990;48.746;9.236;2023-07-31T07:16:22;490.98;;;461.35;;
5929;SDS011;2990;48.746;9.236;2023-07-31T07:18:47;508.02;;;477.55;;
5929;SDS011;2990;48.746;9.236;2023-07-31T07:21:13;561.42;;;526.92;;
5929;SDS011;2990;48.746;9.236;2023-07-31T07:23:41;538.42;;;505.50;;
5929;SDS011;2990;48.746;9.236;2023-07-31T07:26:07;558.83;;;524.88;;
5929;SDS011;2990;48.746;9.236;2023-07-31T07:28:33;556.05;;;521.88;;
5929;SDS011;2990;48.746;9.236;2023-07-31T07:30:59;572.10;;;536.28;;
5929;SDS011;2990;48.746;9.236;2023-07-31T07:33:24;578.42;;;541.90;;
5929;SDS011;2990;48.746;9.236;2023-07-31T07:35:50;613.30;;;574.05;;
5929;SDS011;2990;48.746;9.236;2023-07-31T07:38:15;577.75;;;541.50;;
5929;SDS011;2990;48.746;9.236;2023-07-31T07:40:41;621.08;;;581.33;;
5929;SDS011;2990;48.746;9.236;2023-07-31T07:43:07;601.97;;;564.03;;
5929;SDS011;2990;48.746;9.236;2023-07-31T07:45:32;597.22;;;558.92;;
5929;SDS011;2990;48.746;9.236;2023-07-31T07:47:58;596.10;;;558.08;;
5929;SDS011;2990;48.746;9.236;2023-07-31T07:50:24;628.78;;;587.67;;
5929;SDS011;2990;48.746;9.236;2023-07-31T07:52:49;638.00;;;596.45;;
5929;SDS011;2990;48.746;9.236;2023-07-31T07:55:15;680.90;;;636.13;;
5929;SDS011;2990;48.746;9.236;2023-07-31T07:57:41;661.13;;;618.03;;
5929;SDS011;2990;48.746;9.236;2023-07-31T08:00:06;709.17;;;662.40;;
5929;SDS011;2990;48.746;9.236;2023-07-31T08:02:32;677.53;;;632.90;;
5929;SDS011;2990;48.746;9.236;2023-07-31T08:04:58;761.70;;;711.50;;
5929;SDS011;2990;48.746;9.236;2023-07-31T08:07:23;758.58;;;708.13;;
5929;SDS011;2990;48.746;9.236;2023-07-31T08:09:49;786.97;;;733.97;;
5929;SDS011;2990;48.746;9.236;2023-07-31T08:12:14;751.58;;;701.55;;
5929;SDS011;2990;48.746;9.236;2023-07-31T08:14:40;769.63;;;718.28;;
5929;SDS011;2990;48.746;9.236;2023-07-31T08:17:05;804.38;;;750.65;;
5929;SDS011;2990;48.746;9.236;2023-07-31T08:19:31;838.90;;;781.08;;
5929;SDS011;2990;48.746;9.236;2023-07-31T08:21:56;792.13;;;738.90;;
5929;SDS011;2990;48.746;9.236;2023-07-31T08:24:22;844.70;;;785.53;;
5929;SDS011;2990;48.746;9.236;2023-07-31T08:26:48;876.10;;;815.35;;
5929;SDS011;2990;48.746;9.236;2023-07-31T08:29:13;852.35;;;793.22;;
5929;SDS011;2990;48.746;9.236;2023-07-31T08:31:39;935.05;;;867.33;;
5929;SDS011;2990;48.746;9.236;2023-07-31T08:34:04;997.08;;;922.63;;
5929;SDS011;2990;48.746;9.236;2023-07-31T08:36:30;1013.08;;;935.95;;
5929;SDS011;2990;48.746;9.236;2023-07-31T08:38:55;1026.03;;;946.33;;
5929;SDS011;2990;48.746;9.236;2023-07-31T08:41:21;1015.55;;;937.75;;
5929;SDS011;2990;48.746;9.236;2023-07-31T08:43:46;1052.05;;;969.00;;
5929;SDS011;2990;48.746;9.236;2023-07-31T08:46:12;1027.20;;;945.90;;
5929;SDS011;2990;48.746;9.236;2023-07-31T08:48:39;1081.88;;;992.38;;
5929;SDS011;2990;48.746;9.236;2023-07-31T08:51:07;1069.82;;;984.20;;
5929;SDS011;2990;48.746;9.236;2023-07-31T08:53:32;1098.80;;;999.15;;
5929;SDS011;2990;48.746;9.236;2023-07-31T08:55:58;1103.15;;;999.90;;
5929;SDS011;2990;48.746;9.236;2023-07-31T08:58:24;1075.60;;;988.47;;
5929;SDS011;2990;48.746;9.236;2023-07-31T09:00:52;1071.20;;;984.35;;
5929;SDS011;2990;48.746;9.236;2023-07-31T09:03:20;1055.68;;;973.22;;
5929;SDS011;2990;48.746;9.236;2023-07-31T09:05:47;1040.03;;;957.92;;
5929;SDS011;2990;48.746;9.236;2023-07-31T09:08:13;1019.75;;;939.88;;
5929;SDS011;2990;48.746;9.236;2023-07-31T09:10:43;1055.18;;;971.53;;
5929;SDS011;2990;48.746;9.236;2023-07-31T09:13:11;1050.28;;;967.85;;
5929;SDS011;2990;48.746;9.236;2023-07-31T09:15:40;1005.08;;;929.60;;
5929;SDS011;2990;48.746;9.236;2023-07-31T09:18:08;923.28;;;856.10;;
5929;SDS011;2990;48.746;9.236;2023-07-31T09:20:34;979.05;;;906.15;;
5929;SDS011;2990;48.746;9.236;2023-07-31T09:25:33;938.33;;;870.00;;
5929;SDS011;2990;48.746;9.236;2023-07-31T09:28:00;852.80;;;793.78;;
5929;SDS011;2990;48.746;9.236;2023-07-31T09:30:27;914.95;;;849.55;;
5929;SDS011;2990;48.746;9.236;2023-07-31T09:33:05;929.63;;;863.05;;
5929;SDS011;2990;48.746;9.236;2023-07-31T09:35:35;950.08;;;880.92;;
5929;SDS011;2990;48.746;9.236;2023-07-31T09:38:06;936.38;;;867.95;;
5929;SDS011;2990;48.746;9.236;2023-07-31T09:40:34;968.08;;;896.08;;
5929;SDS011;2990;48.746;9.236;2023-07-31T09:43:02;968.55;;;897.13;;
5929;SDS011;2990;48.746;9.236;2023-07-31T09:45:29;957.58;;;887.22;;
5929;SDS011;2990;48.746;9.236;2023-07-31T09:47:58;943.65;;;873.95;;
5929;SDS011;2990;48.746;9.236;2023-07-31T09:50:24;926.90;;;860.83;;
5929;SDS011;2990;48.746;9.236;2023-07-31T09:52:50;921.25;;;854.92;;
5929;SDS011;2990;48.746;9.236;2023-07-31T09:55:17;905.03;;;840.85;;
5929;SDS011;2990;48.746;9.236;2023-07-31T09:57:46;880.70;;;819.53;;
5929;SDS011;2990;48.746;9.236;2023-07-31T10:00:14;817.33;;;761.28;;
5929;SDS011;2990;48.746;9.236;2023-07-31T10:02:45;846.50;;;788.70;;
5929;SDS011;2990;48.746;9.236;2023-07-31T10:05:12;891.40;;;827.78;;
5929;SDS011;2990;48.746;9.236;2023-07-31T10:07:40;903.15;;;838.35;;
5929;SDS011;2990;48.746;9.236;2023-07-31T10:10:08;957.72;;;886.45;;
5929;SDS011;2990;48.746;9.236;2023-07-31T10:12:34;1018.60;;;939.78;;
5929;SDS011;2990;48.746;9.236;2023-07-31T10:15:01;970.33;;;897.05;;
5929;SDS011;2990;48.746;9.236;2023-07-31T10:17:27;1012.63;;;934.95;;
5929;SDS011;2990;48.746;9.236;2023-07-31T10:19:55;1046.20;;;963.95;;
5929;SDS011;2990;48.746;9.236;2023-07-31T10:22:23;1037.43;;;956.90;;
5929;SDS011;2990;48.746;9.236;2023-07-31T10:24:50;1042.80;;;962.38;;
5929;SDS011;2990;48.746;9.236;2023-07-31T10:27:17;1007.58;;;932.20;;
5929;SDS011;2990;48.746;9.236;2023-07-31T10:29:43;1037.13;;;956.92;;
5929;SDS011;2990;48.746;9.236;2023-07-31T10:32:12;1029.18;;;948.22;;
5929;SDS011;2990;48.746;9.236;2023-07-31T10:34:39;1065.15;;;980.22;;
5929;SDS011;2990;48.746;9.236;2023-07-31T10:39:56;1058.80;;;974.30;;
5929;SDS011;2990;48.746;9.236;2023-07-31T10:42:45;1069.25;;;982.88;;
5929;SDS011;2990;48.746;9.236;2023-07-31T10:45:24;1046.57;;;963.75;;
5929;SDS011;2990;48.746;9.236;2023-07-31T10:48:06;1086.70;;;994.42;;
5929;SDS011;2990;48.746;9.236;2023-07-31T10:50:48;1121.40;;;999.90;;
5929;SDS011;2990;48.746;9.236;2023-07-31T10:53:25;1092.18;;;995.72;;
5929;SDS011;2990;48.746;9.236;2023-07-31T10:55:57;1134.20;;;999.90;;
5929;SDS011;2990;48.746;9.236;2023-07-31T10:58:24;1141.70;;;999.90;;
5929;SDS011;2990;48.746;9.236;2023-07-31T11:00:49;1160.97;;;999.90;;
5929;SDS011;2990;48.746;9.236;2023-07-31T11:03:24;1145.95;;;999.90;;
5929;SDS011;2990;48.746;9.236;2023-07-31T11:06:00;1151.88;;;999.90;;
5929;SDS011;2990;48.746;9.236;2023-07-31T11:08:29;1158.18;;;999.90;;
5929;SDS011;2990;48.746;9.236;2023-07-31T11:13:27;1165.72;;;999.90;;
5929;SDS011;2990;48.746;9.236;2023-07-31T11:15:56;1151.68;;;999.90;;
5929;SDS011;2990;48.746;9.236;2023-07-31T11:18:22;1179.32;;;999.90;;
5929;SDS011;2990;48.746;9.236;2023-07-31T11:20:48;1190.88;;;999.90;;
5929;SDS011;2990;48.746;9.236;2023-07-31T11:23:15;1202.40;;;999.90;;
5929;SDS011;2990;48.746;9.236;2023-07-31T11:25:42;1160.20;;;999.90;;
5929;SDS011;2990;48.746;9.236;2023-07-31T11:28:14;1196.82;;;999.90;;
5929;SDS011;2990;48.746;9.236;2023-07-31T11:30:41;1197.07;;;999.90;;
5929;SDS011;2990;48.746;9.236;2023-07-31T11:33:07;1180.40;;;999.90;;
5929;SDS011;2990;48.746;9.236;2023-07-31T11:38:09;1109.45;;;999.90;;
5929;SDS011;2990;48.746;9.236;2023-07-31T11:40:42;1131.22;;;999.90;;
5929;SDS011;2990;48.746;9.236;2023-07-31T11:43:08;1116.68;;;999.90;;
5929;SDS011;2990;48.746;9.236;2023-07-31T11:45:36;1053.90;;;968.15;;
5929;SDS011;2990;48.746;9.236;2023-07-31T11:48:03;1084.78;;;993.50;;
5929;SDS011;2990;48.746;9.236;2023-07-31T11:50:29;1047.00;;;963.55;;
5929;SDS011;2990;48.746;9.236;2023-07-31T11:53:01;1022.45;;;941.90;;
5929;SDS011;2990;48.746;9.236;2023-07-31T11:55:31;1067.32;;;981.90;;
5929;SDS011;2990;48.746;9.236;2023-07-31T11:57:57;1063.45;;;978.40;;
5929;SDS011;2990;48.746;9.236;2023-07-31T12:00:23;1066.93;;;981.58;;
5929;SDS011;2990;48.746;9.236;2023-07-31T12:02:50;1046.43;;;965.05;;
5929;SDS011;2990;48.746;9.236;2023-07-31T12:05:16;1050.60;;;967.97;;
5929;SDS011;2990;48.746;9.236;2023-07-31T12:07:43;1016.72;;;938.75;;
5929;SDS011;2990;48.746;9.236;2023-07-31T12:10:09;1011.60;;;933.80;;
5929;SDS011;2990;48.746;9.236;2023-07-31T12:12:34;960.83;;;889.42;;
5929;SDS011;2990;48.746;9.236;2023-07-31T12:15:00;936.03;;;867.05;;
5929;SDS011;2990;48.746;9.236;2023-07-31T12:17:25;974.65;;;902.85;;
5929;SDS011;2990;48.746;9.236;2023-07-31T12:19:51;967.90;;;896.55;;
5929;SDS011;2990;48.746;9.236;2023-07-31T12:22:16;971.10;;;899.15;;
5929;SDS011;2990;48.746;9.236;2023-07-31T12:24:42;954.00;;;883.60;;
5929;SDS011;2990;48.746;9.236;2023-07-31T12:27:12;931.35;;;863.78;;
5929;SDS011;2990;48.746;9.236;2023-07-31T12:29:41;936.55;;;869.13;;
5929;SDS011;2990;48.746;9.236;2023-07-31T12:32:22;959.50;;;890.70;;
5929;SDS011;2990;48.746;9.236;2023-07-31T12:34:50;903.42;;;839.30;;
5929;SDS011;2990;48.746;9.236;2023-07-31T12:37:15;945.20;;;877.22;;
5929;SDS011;2990;48.746;9.236;2023-07-31T12:39:41;964.03;;;894.53;;
5929;SDS011;2990;48.746;9.236;2023-07-31T12:42:07;964.97;;;895.05;;
5929;SDS011;2990;48.746;9.236;2023-07-31T12:44:32;899.35;;;835.67;;
5929;SDS011;2990;48.746;9.236;2023-07-31T12:46:58;918.75;;;852.25;;
5929;SDS011;2990;48.746;9.236;2023-07-31T12:49:24;972.38;;;900.38;;
5929;SDS011;2990;48.746;9.236;2023-07-31T12:51:49;984.22;;;911.05;;
5929;SDS011;2990;48.746;9.236;2023-07-31T12:54:15;928.20;;;861.30;;
5929;SDS011;2990;48.746;9.236;2023-07-31T12:56:40;962.50;;;892.88;;
5929;SDS011;2990;48.746;9.236;2023-07-31T12:59:06;953.30;;;884.10;;
5929;SDS011;2990;48.746;9.236;2023-07-31T13:01:32;896.47;;;832.88;;
5929;SDS011;2990;48.746;9.236;2023-07-31T13:03:57;948.00;;;879.90;;
5929;SDS011;2990;48.746;9.236;2023-07-31T13:06:24;937.20;;;870.25;;
5929;SDS011;2990;48.746;9.236;2023-07-31T13:08:50;838.40;;;780.85;;
5929;SDS011;2990;48.746;9.236;2023-07-31T13:11:16;922.00;;;856.13;;
5929;SDS011;2990;48.746;9.236;2023-07-31T13:13:41;935.22;;;867.83;;
5929;SDS011;2990;48.746;9.236;2023-07-31T13:16:07;871.55;;;809.80;;
5929;SDS011;2990;48.746;9.236;2023-07-31T13:18:32;963.53;;;893.00;;
5929;SDS011;2990;48.746;9.236;2023-07-31T13:20:58;922.92;;;856.00;;
5929;SDS011;2990;48.746;9.236;2023-07-31T13:23:23;985.95;;;912.13;;
5929;SDS011;2990;48.746;9.236;2023-07-31T13:25:49;1002.08;;;925.60;;
5929;SDS011;2990;48.746;9.236;2023-07-31T13:28:14;1036.03;;;955.17;;
5929;SDS011;2990;48.746;9.236;2023-07-31T13:30:40;1066.50;;;981.38;;
5929;SDS011;2990;48.746;9.236;2023-07-31T13:33:06;1061.65;;;976.53;;
5929;SDS011;2990;48.746;9.236;2023-07-31T13:35:31;1079.25;;;989.90;;
5929;SDS011;2990;48.746;9.236;2023-07-31T13:37:57;1096.50;;;997.92;;
5929;SDS011;2990;48.746;9.236;2023-07-31T13:40:22;1112.30;;;999.90;;
5929;SDS011;2990;48.746;9.236;2023-07-31T13:42:48;1124.50;;;999.90;;
5929;SDS011;2990;48.746;9.236;2023-07-31T13:45:14;1148.95;;;999.90;;
5929;SDS011;2990;48.746;9.236;2023-07-31T13:47:39;1155.97;;;999.90;;
5929;SDS011;2990;48.746;9.236;2023-07-31T13:50:05;1133.30;;;999.90;;
5929;SDS011;2990;48.746;9.236;2023-07-31T13:52:31;1104.40;;;999.60;;
5929;SDS011;2990;48.746;9.236;2023-07-31T13:54:56;1152.75;;;999.90;;
5929;SDS011;2990;48.746;9.236;2023-07-31T13:57:22;1171.35;;;999.90;;
5929;SDS011;2990;48.746;9.236;2023-07-31T13:59:48;1144.13;;;999.90;;
5929;SDS011;2990;48.746;9.236;2023-07-31T14:02:14;1187.50;;;999.90;;
5929;SDS011;2990;48.746;9.236;2023-07-31T14:04:40;1135.57;;;999.90;;
5929;SDS011;2990;48.746;9.236;2023-07-31T14:07:05;1176.55;;;999.90;;
5929;SDS011;2990;48.746;9.236;2023-07-31T14:09:31;1161.28;;;999.90;;
5929;SDS011;2990;48.746;9.236;2023-07-31T14:11:57;1120.35;;;999.90;;
5929;SDS011;2990;48.746;9.236;2023-07-31T14:14:22;1107.82;;;998.58;;
5929;SDS011;2990;48.746;9.236;2023-07-31T14:16:48;1134.97;;;999.90;;
5929;SDS011;2990;48.746;9.236;2023-07-31T14:19:13;1149.65;;;999.90;;
5929;SDS011;2990;48.746;9.236;2023-07-31T14:21:39;1060.65;;;975.20;;
5929;SDS011;2990;48.746;9.236;2023-07-31T14:24:04;1067.70;;;978.83;;
5929;SDS011;2990;48.746;9.236;2023-07-31T14:26:30;1122.50;;;999.90;;
5929;SDS011;2990;48.746;9.236;2023-07-31T14:28:56;1078.85;;;987.67;;
5929;SDS011;2990;48.746;9.236;2023-07-31T14:31:21;1103.82;;;999.90;;
5929;SDS011;2990;48.746;9.236;2023-07-31T14:33:47;1098.53;;;998.17;;